sensor_id;sensor_type;location;lat;lon;timestamp;P1;durP1;ratioP1;P2;durP2;ratioP2
20525;SDS011;10421;49.142;9.232;2023-03-23T00:00:50;3.40;;;1.20;;
20525;SDS011;10421;49.142;9.232;2023-03-23T00:03:19;1.50;;;1.40;;
20525;SDS011;10421;49.142;9.232;2023-03-23T00:05:47;1.17;;;1.03;;
20525;SDS011;10421;49.142;9.232;2023-03-23T00:08:17;1.63;;;1.53;;
20525;SDS011;10421;49.142;9.232;2023-03-23T00:10:47;1.90;;;1.00;;
20525;SDS011;10421;49.142;9.232;2023-03-23T00:13:17;1.10;;;1.10;;
20525;SDS011;10421;49.142;9.232;2023-03-23T00:15:45;2.10;;;1.33;;
20525;SDS011;10421;49.142;9.232;2023-03-23T00:18:13;1.00;;;0.97;;
20525;SDS011;10421;49.142;9.232;2023-03-23T00:20:46;2.00;;;1.30;;
20525;SDS011;10421;49.142;9.232;2023-03-23T00:23:14;2.20;;;1.40;;
20525;SDS011;10421;49.142;9.232;2023-03-23T00:25:47;4.10;;;0.90;;
20525;SDS011;10421;49.142;9.232;2023-03-23T00:28:16;1.43;;;1.27;;
20525;SDS011;10421;49.142;9.232;2023-03-23T00:30:43;2.10;;;1.10;;
20525;SDS011;10421;49.142;9.232;2023-03-23T00:33:10;1.90;;;1.37;;
20525;SDS011;10421;49.142;9.232;2023-03-23T00:35:39;1.50;;;1.40;;
20525;SDS011;10421;49.142;9.232;2023-03-23T00:38:06;2.87;;;1.67;;
20525;SDS011;10421;49.142;9.232;2023-03-23T00:40:33;1.67;;;1.00;;
20525;SDS011;10421;49.142;9.232;2023-03-23T00:43:03;1.50;;;1.40;;
20525;SDS011;10421;49.142;9.232;2023-03-23T00:45:29;2.00;;;1.00;;
20525;SDS011;10421;49.142;9.232;2023-03-23T00:47:59;3.00;;;1.10;;
20525;SDS011;10421;49.142;9.232;2023-03-23T00:50:27;3.80;;;1.10;;
20525;SDS011;10421;49.142;9.232;2023-03-23T00:52:54;1.80;;;1.70;;
20525;SDS011;10421;49.142;9.232;2023-03-23T00:55:21;1.50;;;1.10;;
20525;SDS011;10421;49.142;9.232;2023-03-23T00:57:48;1.50;;;1.40;;
20525;SDS011;10421;49.142;9.232;2023-03-23T01:00:17;1.10;;;1.00;;
20525;SDS011;10421;49.142;9.232;2023-03-23T01:02:45;2.17;;;1.10;;
20525;SDS011;10421;49.142;9.232;2023-03-23T01:05:12;1.43;;;1.30;;
20525;SDS011;10421;49.142;9.232;2023-03-23T01:07:39;1.70;;;1.60;;
20525;SDS011;10421;49.142;9.232;2023-03-23T01:10:06;1.40;;;1.30;;
20525;SDS011;10421;49.142;9.232;2023-03-23T01:12:34;1.43;;;1.33;;
20525;SDS011;10421;49.142;9.232;2023-03-23T01:15:01;2.43;;;1.37;;
20525;SDS011;10421;49.142;9.232;2023-03-23T01:17:29;1.17;;;1.07;;
20525;SDS011;10421;49.142;9.232;2023-03-23T01:19:55;1.90;;;1.30;;
20525;SDS011;10421;49.142;9.232;2023-03-23T01:22:22;1.90;;;1.63;;
20525;SDS011;10421;49.142;9.232;2023-03-23T01:24:49;1.83;;;0.97;;
20525;SDS011;10421;49.142;9.232;2023-03-23T01:27:16;1.80;;;1.70;;
20525;SDS011;10421;49.142;9.232;2023-03-23T01:29:43;1.83;;;1.73;;
20525;SDS011;10421;49.142;9.232;2023-03-23T01:32:09;9.83;;;1.33;;
20525;SDS011;10421;49.142;9.232;2023-03-23T01:34:37;1.43;;;1.33;;
20525;SDS011;10421;49.142;9.232;2023-03-23T01:37:04;2.53;;;1.40;;
20525;SDS011;10421;49.142;9.232;2023-03-23T01:39:31;1.33;;;1.23;;
20525;SDS011;10421;49.142;9.232;2023-03-23T01:41:58;1.60;;;1.50;;
20525;SDS011;10421;49.142;9.232;2023-03-23T01:47:29;1.27;;;1.10;;
20525;SDS011;10421;49.142;9.232;2023-03-23T01:49:57;1.50;;;1.33;;
20525;SDS011;10421;49.142;9.232;2023-03-23T01:52:25;2.90;;;1.40;;
20525;SDS011;10421;49.142;9.232;2023-03-23T01:54:54;1.90;;;1.70;;
20525;SDS011;10421;49.142;9.232;2023-03-23T01:57:23;1.40;;;1.30;;
20525;SDS011;10421;49.142;9.232;2023-03-23T01:59:53;1.60;;;0.90;;
20525;SDS011;10421;49.142;9.232;2023-03-23T02:02:23;1.60;;;1.40;;
20525;SDS011;10421;49.142;9.232;2023-03-23T02:04:51;2.40;;;1.73;;
20525;SDS011;10421;49.142;9.232;2023-03-23T02:07:26;1.10;;;1.00;;
20525;SDS011;10421;49.142;9.232;2023-03-23T02:09:53;2.20;;;2.00;;
20525;SDS011;10421;49.142;9.232;2023-03-23T02:12:20;1.80;;;1.70;;
20525;SDS011;10421;49.142;9.232;2023-03-23T02:14:47;1.20;;;1.00;;
20525;SDS011;10421;49.142;9.232;2023-03-23T02:17:15;1.50;;;1.37;;
20525;SDS011;10421;49.142;9.232;2023-03-23T02:20:00;2.00;;;1.43;;
20525;SDS011;10421;49.142;9.232;2023-03-23T02:22:51;2.93;;;1.57;;
20525;SDS011;10421;49.142;9.232;2023-03-23T02:25:37;1.67;;;1.30;;
20525;SDS011;10421;49.142;9.232;2023-03-23T02:28:30;2.27;;;1.40;;
20525;SDS011;10421;49.142;9.232;2023-03-23T02:31:18;2.00;;;1.20;;
20525;SDS011;10421;49.142;9.232;2023-03-23T02:33:56;2.67;;;1.50;;
20525;SDS011;10421;49.142;9.232;2023-03-23T02:36:28;1.73;;;1.47;;
20525;SDS011;10421;49.142;9.232;2023-03-23T02:39:01;1.63;;;1.50;;
20525;SDS011;10421;49.142;9.232;2023-03-23T02:41:33;1.40;;;1.27;;
20525;SDS011;10421;49.142;9.232;2023-03-23T02:44:05;1.90;;;1.50;;
20525;SDS011;10421;49.142;9.232;2023-03-23T02:46:34;2.50;;;1.70;;
20525;SDS011;10421;49.142;9.232;2023-03-23T02:49:03;4.60;;;1.60;;
20525;SDS011;10421;49.142;9.232;2023-03-23T02:51:33;2.60;;;1.50;;
20525;SDS011;10421;49.142;9.232;2023-03-23T02:54:02;1.30;;;1.20;;
20525;SDS011;10421;49.142;9.232;2023-03-23T02:56:30;2.10;;;1.63;;
20525;SDS011;10421;49.142;9.232;2023-03-23T02:58:58;1.80;;;1.47;;
20525;SDS011;10421;49.142;9.232;2023-03-23T03:01:45;1.60;;;1.50;;
20525;SDS011;10421;49.142;9.232;2023-03-23T03:04:19;2.40;;;1.33;;
20525;SDS011;10421;49.142;9.232;2023-03-23T03:06:52;1.73;;;1.63;;
20525;SDS011;10421;49.142;9.232;2023-03-23T03:09:29;1.57;;;1.40;;
20525;SDS011;10421;49.142;9.232;2023-03-23T03:12:04;2.70;;;1.50;;
20525;SDS011;10421;49.142;9.232;2023-03-23T03:14:35;2.13;;;2.03;;
20525;SDS011;10421;49.142;9.232;2023-03-23T03:17:09;1.83;;;1.50;;
20525;SDS011;10421;49.142;9.232;2023-03-23T03:19:46;1.67;;;1.50;;
20525;SDS011;10421;49.142;9.232;2023-03-23T03:22:15;2.97;;;1.87;;
20525;SDS011;10421;49.142;9.232;2023-03-23T03:24:43;1.87;;;1.67;;
20525;SDS011;10421;49.142;9.232;2023-03-23T03:27:11;2.57;;;1.73;;
20525;SDS011;10421;49.142;9.232;2023-03-23T03:29:41;1.73;;;1.63;;
20525;SDS011;10421;49.142;9.232;2023-03-23T03:32:13;2.30;;;1.73;;
20525;SDS011;10421;49.142;9.232;2023-03-23T03:34:43;1.93;;;1.43;;
20525;SDS011;10421;49.142;9.232;2023-03-23T03:37:12;1.73;;;1.63;;
20525;SDS011;10421;49.142;9.232;2023-03-23T03:39:40;3.07;;;2.13;;
20525;SDS011;10421;49.142;9.232;2023-03-23T03:42:07;2.43;;;1.60;;
20525;SDS011;10421;49.142;9.232;2023-03-23T03:44:34;3.00;;;1.77;;
20525;SDS011;10421;49.142;9.232;2023-03-23T03:47:01;2.23;;;1.73;;
20525;SDS011;10421;49.142;9.232;2023-03-23T03:49:28;2.00;;;1.50;;
20525;SDS011;10421;49.142;9.232;2023-03-23T03:51:57;2.10;;;1.57;;
20525;SDS011;10421;49.142;9.232;2023-03-23T03:54:23;1.67;;;1.57;;
20525;SDS011;10421;49.142;9.232;2023-03-23T03:56:50;4.43;;;2.73;;
20525;SDS011;10421;49.142;9.232;2023-03-23T03:59:22;4.50;;;1.60;;
20525;SDS011;10421;49.142;9.232;2023-03-23T04:01:50;2.77;;;2.00;;
20525;SDS011;10421;49.142;9.232;2023-03-23T04:04:19;1.80;;;1.50;;
20525;SDS011;10421;49.142;9.232;2023-03-23T04:06:46;2.57;;;1.90;;
20525;SDS011;10421;49.142;9.232;2023-03-23T04:09:15;2.47;;;2.00;;
20525;SDS011;10421;49.142;9.232;2023-03-23T04:11:42;2.53;;;1.80;;
20525;SDS011;10421;49.142;9.232;2023-03-23T04:14:08;1.80;;;1.43;;
20525;SDS011;10421;49.142;9.232;2023-03-23T04:16:36;2.47;;;1.90;;
20525;SDS011;10421;49.142;9.232;2023-03-23T04:19:02;2.03;;;1.90;;
20525;SDS011;10421;49.142;9.232;2023-03-23T04:21:30;1.70;;;1.60;;
20525;SDS011;10421;49.142;9.232;2023-03-23T04:23:57;2.70;;;2.17;;
20525;SDS011;10421;49.142;9.232;2023-03-23T04:26:26;2.17;;;1.97;;
20525;SDS011;10421;49.142;9.232;2023-03-23T04:28:54;1.93;;;1.83;;
20525;SDS011;10421;49.142;9.232;2023-03-23T04:31:21;2.20;;;1.80;;
20525;SDS011;10421;49.142;9.232;2023-03-23T04:33:49;2.33;;;1.70;;
20525;SDS011;10421;49.142;9.232;2023-03-23T04:36:17;2.10;;;1.90;;
20525;SDS011;10421;49.142;9.232;2023-03-23T04:38:44;1.97;;;1.80;;
20525;SDS011;10421;49.142;9.232;2023-03-23T04:41:11;4.00;;;1.70;;
20525;SDS011;10421;49.142;9.232;2023-03-23T04:43:39;2.07;;;1.93;;
20525;SDS011;10421;49.142;9.232;2023-03-23T04:46:08;2.37;;;1.87;;
20525;SDS011;10421;49.142;9.232;2023-03-23T04:48:34;3.80;;;1.40;;
20525;SDS011;10421;49.142;9.232;2023-03-23T04:51:04;2.23;;;1.90;;
20525;SDS011;10421;49.142;9.232;2023-03-23T04:53:31;3.73;;;1.80;;
20525;SDS011;10421;49.142;9.232;2023-03-23T04:55:58;2.37;;;1.87;;
20525;SDS011;10421;49.142;9.232;2023-03-23T04:58:26;2.27;;;1.70;;
20525;SDS011;10421;49.142;9.232;2023-03-23T05:00:56;2.70;;;2.30;;
20525;SDS011;10421;49.142;9.232;2023-03-23T05:03:23;1.87;;;1.77;;
20525;SDS011;10421;49.142;9.232;2023-03-23T05:05:50;2.43;;;1.63;;
20525;SDS011;10421;49.142;9.232;2023-03-23T05:08:17;2.40;;;2.20;;
20525;SDS011;10421;49.142;9.232;2023-03-23T05:10:49;1.87;;;1.77;;
20525;SDS011;10421;49.142;9.232;2023-03-23T05:13:18;2.23;;;2.07;;
20525;SDS011;10421;49.142;9.232;2023-03-23T05:15:45;1.90;;;1.80;;
20525;SDS011;10421;49.142;9.232;2023-03-23T05:18:13;1.80;;;1.70;;
20525;SDS011;10421;49.142;9.232;2023-03-23T05:20:40;1.57;;;1.47;;
20525;SDS011;10421;49.142;9.232;2023-03-23T05:23:07;3.47;;;2.17;;
20525;SDS011;10421;49.142;9.232;2023-03-23T05:25:35;3.30;;;1.40;;
20525;SDS011;10421;49.142;9.232;2023-03-23T05:28:05;2.00;;;1.87;;
20525;SDS011;10421;49.142;9.232;2023-03-23T05:30:32;2.60;;;1.80;;
20525;SDS011;10421;49.142;9.232;2023-03-23T05:32:59;3.40;;;2.10;;
20525;SDS011;10421;49.142;9.232;2023-03-23T05:35:27;2.27;;;1.73;;
20525;SDS011;10421;49.142;9.232;2023-03-23T05:37:54;2.67;;;2.10;;
20525;SDS011;10421;49.142;9.232;2023-03-23T05:40:21;2.90;;;2.27;;
20525;SDS011;10421;49.142;9.232;2023-03-23T05:42:50;2.53;;;2.03;;
20525;SDS011;10421;49.142;9.232;2023-03-23T05:45:18;4.03;;;2.57;;
20525;SDS011;10421;49.142;9.232;2023-03-23T05:47:45;2.20;;;2.00;;
20525;SDS011;10421;49.142;9.232;2023-03-23T05:50:13;3.40;;;2.27;;
20525;SDS011;10421;49.142;9.232;2023-03-23T05:52:41;3.00;;;2.10;;
20525;SDS011;10421;49.142;9.232;2023-03-23T05:55:08;2.10;;;1.90;;
20525;SDS011;10421;49.142;9.232;2023-03-23T05:57:35;4.00;;;2.40;;
20525;SDS011;10421;49.142;9.232;2023-03-23T06:00:02;4.03;;;2.23;;
20525;SDS011;10421;49.142;9.232;2023-03-23T06:02:36;3.70;;;2.50;;
20525;SDS011;10421;49.142;9.232;2023-03-23T06:05:03;2.50;;;1.93;;
20525;SDS011;10421;49.142;9.232;2023-03-23T06:07:31;2.20;;;2.00;;
20525;SDS011;10421;49.142;9.232;2023-03-23T06:09:59;2.57;;;2.30;;
20525;SDS011;10421;49.142;9.232;2023-03-23T06:12:26;3.03;;;2.83;;
20525;SDS011;10421;49.142;9.232;2023-03-23T06:14:53;3.03;;;2.40;;
20525;SDS011;10421;49.142;9.232;2023-03-23T06:17:19;2.20;;;2.00;;
20525;SDS011;10421;49.142;9.232;2023-03-23T06:19:47;2.20;;;2.10;;
20525;SDS011;10421;49.142;9.232;2023-03-23T06:22:15;3.07;;;2.77;;
20525;SDS011;10421;49.142;9.232;2023-03-23T06:24:42;3.27;;;2.50;;
20525;SDS011;10421;49.142;9.232;2023-03-23T06:27:11;4.47;;;2.20;;
20525;SDS011;10421;49.142;9.232;2023-03-23T06:29:38;2.40;;;2.20;;
20525;SDS011;10421;49.142;9.232;2023-03-23T06:32:05;2.10;;;1.90;;
20525;SDS011;10421;49.142;9.232;2023-03-23T06:34:32;2.10;;;1.57;;
20525;SDS011;10421;49.142;9.232;2023-03-23T06:36:59;2.43;;;2.20;;
20525;SDS011;10421;49.142;9.232;2023-03-23T06:39:27;2.97;;;2.73;;
20525;SDS011;10421;49.142;9.232;2023-03-23T06:41:54;2.40;;;2.20;;
20525;SDS011;10421;49.142;9.232;2023-03-23T06:44:27;2.87;;;2.30;;
20525;SDS011;10421;49.142;9.232;2023-03-23T06:46:54;2.60;;;1.93;;
20525;SDS011;10421;49.142;9.232;2023-03-23T06:49:21;2.90;;;1.90;;
20525;SDS011;10421;49.142;9.232;2023-03-23T06:51:48;1.93;;;1.83;;
20525;SDS011;10421;49.142;9.232;2023-03-23T06:54:15;2.70;;;2.30;;
20525;SDS011;10421;49.142;9.232;2023-03-23T06:56:41;2.13;;;1.93;;
20525;SDS011;10421;49.142;9.232;2023-03-23T06:59:08;2.57;;;2.37;;
20525;SDS011;10421;49.142;9.232;2023-03-23T07:01:36;2.47;;;2.23;;
20525;SDS011;10421;49.142;9.232;2023-03-23T07:04:03;2.33;;;2.13;;
20525;SDS011;10421;49.142;9.232;2023-03-23T07:06:30;2.90;;;2.47;;
20525;SDS011;10421;49.142;9.232;2023-03-23T07:08:57;3.83;;;2.33;;
20525;SDS011;10421;49.142;9.232;2023-03-23T07:11:24;3.60;;;2.13;;
20525;SDS011;10421;49.142;9.232;2023-03-23T07:13:51;2.90;;;2.23;;
20525;SDS011;10421;49.142;9.232;2023-03-23T07:16:18;1.80;;;1.70;;
20525;SDS011;10421;49.142;9.232;2023-03-23T07:18:46;2.83;;;2.20;;
20525;SDS011;10421;49.142;9.232;2023-03-23T07:21:12;2.33;;;2.13;;
20525;SDS011;10421;49.142;9.232;2023-03-23T07:23:39;2.57;;;2.37;;
20525;SDS011;10421;49.142;9.232;2023-03-23T07:26:06;5.93;;;2.00;;
20525;SDS011;10421;49.142;9.232;2023-03-23T07:28:33;6.10;;;2.60;;
20525;SDS011;10421;49.142;9.232;2023-03-23T07:31:01;4.80;;;3.10;;
20525;SDS011;10421;49.142;9.232;2023-03-23T07:33:28;2.70;;;2.50;;
20525;SDS011;10421;49.142;9.232;2023-03-23T07:35:57;3.20;;;2.70;;
20525;SDS011;10421;49.142;9.232;2023-03-23T07:38:30;3.27;;;2.50;;
20525;SDS011;10421;49.142;9.232;2023-03-23T07:40:57;3.47;;;2.53;;
20525;SDS011;10421;49.142;9.232;2023-03-23T07:43:24;3.10;;;2.70;;
20525;SDS011;10421;49.142;9.232;2023-03-23T07:45:51;4.17;;;2.40;;
20525;SDS011;10421;49.142;9.232;2023-03-23T07:50:57;6.63;;;2.67;;
20525;SDS011;10421;49.142;9.232;2023-03-23T07:53:24;4.17;;;2.67;;
20525;SDS011;10421;49.142;9.232;2023-03-23T07:55:55;4.57;;;2.37;;
20525;SDS011;10421;49.142;9.232;2023-03-23T07:58:22;2.07;;;1.90;;
20525;SDS011;10421;49.142;9.232;2023-03-23T08:00:51;3.17;;;2.87;;
20525;SDS011;10421;49.142;9.232;2023-03-23T08:03:19;2.67;;;2.47;;
20525;SDS011;10421;49.142;9.232;2023-03-23T08:05:46;2.33;;;2.13;;
20525;SDS011;10421;49.142;9.232;2023-03-23T08:08:14;3.23;;;2.70;;
20525;SDS011;10421;49.142;9.232;2023-03-23T08:10:40;2.43;;;2.23;;
20525;SDS011;10421;49.142;9.232;2023-03-23T08:13:07;3.60;;;2.50;;
20525;SDS011;10421;49.142;9.232;2023-03-23T08:15:35;3.00;;;2.30;;
20525;SDS011;10421;49.142;9.232;2023-03-23T08:18:02;4.07;;;2.60;;
20525;SDS011;10421;49.142;9.232;2023-03-23T08:20:30;5.20;;;2.40;;
20525;SDS011;10421;49.142;9.232;2023-03-23T08:22:57;3.37;;;2.53;;
20525;SDS011;10421;49.142;9.232;2023-03-23T08:25:26;1.93;;;1.83;;
20525;SDS011;10421;49.142;9.232;2023-03-23T08:27:53;2.93;;;2.60;;
20525;SDS011;10421;49.142;9.232;2023-03-23T08:30:21;2.73;;;2.10;;
20525;SDS011;10421;49.142;9.232;2023-03-23T08:32:49;1.97;;;1.60;;
20525;SDS011;10421;49.142;9.232;2023-03-23T08:35:17;3.90;;;2.27;;
20525;SDS011;10421;49.142;9.232;2023-03-23T08:37:45;3.50;;;2.20;;
20525;SDS011;10421;49.142;9.232;2023-03-23T08:40:16;2.87;;;2.57;;
20525;SDS011;10421;49.142;9.232;2023-03-23T08:42:46;6.83;;;2.40;;
20525;SDS011;10421;49.142;9.232;2023-03-23T08:45:14;2.40;;;2.20;;
20525;SDS011;10421;49.142;9.232;2023-03-23T08:47:42;2.40;;;2.07;;
20525;SDS011;10421;49.142;9.232;2023-03-23T08:50:12;2.10;;;1.90;;
20525;SDS011;10421;49.142;9.232;2023-03-23T08:52:42;2.60;;;2.40;;
20525;SDS011;10421;49.142;9.232;2023-03-23T08:55:09;3.63;;;1.80;;
20525;SDS011;10421;49.142;9.232;2023-03-23T08:57:37;2.60;;;2.40;;
20525;SDS011;10421;49.142;9.232;2023-03-23T09:00:07;2.90;;;1.70;;
20525;SDS011;10421;49.142;9.232;2023-03-23T09:02:41;1.83;;;1.70;;
20525;SDS011;10421;49.142;9.232;2023-03-23T09:05:10;2.50;;;2.30;;
20525;SDS011;10421;49.142;9.232;2023-03-23T09:07:37;6.23;;;2.43;;
20525;SDS011;10421;49.142;9.232;2023-03-23T09:10:05;2.30;;;2.10;;
20525;SDS011;10421;49.142;9.232;2023-03-23T09:12:32;3.07;;;2.07;;
20525;SDS011;10421;49.142;9.232;2023-03-23T09:15:00;2.70;;;2.40;;
20525;SDS011;10421;49.142;9.232;2023-03-23T09:17:31;2.97;;;2.57;;
20525;SDS011;10421;49.142;9.232;2023-03-23T09:19:58;2.10;;;1.90;;
20525;SDS011;10421;49.142;9.232;2023-03-23T09:22:25;3.10;;;1.97;;
20525;SDS011;10421;49.142;9.232;2023-03-23T09:24:52;3.80;;;2.43;;
20525;SDS011;10421;49.142;9.232;2023-03-23T09:27:19;3.30;;;2.53;;
20525;SDS011;10421;49.142;9.232;2023-03-23T09:29:46;2.57;;;2.37;;
20525;SDS011;10421;49.142;9.232;2023-03-23T09:32:14;3.13;;;2.53;;
20525;SDS011;10421;49.142;9.232;2023-03-23T09:34:42;3.93;;;2.73;;
20525;SDS011;10421;49.142;9.232;2023-03-23T09:37:09;4.57;;;2.97;;
20525;SDS011;10421;49.142;9.232;2023-03-23T09:39:38;4.13;;;2.63;;
20525;SDS011;10421;49.142;9.232;2023-03-23T09:42:11;6.13;;;3.07;;
20525;SDS011;10421;49.142;9.232;2023-03-23T09:44:52;2.60;;;2.23;;
20525;SDS011;10421;49.142;9.232;2023-03-23T09:47:29;3.30;;;2.73;;
20525;SDS011;10421;49.142;9.232;2023-03-23T09:50:07;2.67;;;2.47;;
20525;SDS011;10421;49.142;9.232;2023-03-23T09:52:37;3.40;;;3.10;;
20525;SDS011;10421;49.142;9.232;2023-03-23T09:55:09;1.97;;;1.77;;
20525;SDS011;10421;49.142;9.232;2023-03-23T09:57:41;4.57;;;2.53;;
20525;SDS011;10421;49.142;9.232;2023-03-23T10:00:14;2.90;;;2.33;;
20525;SDS011;10421;49.142;9.232;2023-03-23T10:02:44;2.50;;;2.10;;
20525;SDS011;10421;49.142;9.232;2023-03-23T10:05:25;2.43;;;2.23;;
20525;SDS011;10421;49.142;9.232;2023-03-23T10:07:56;3.17;;;2.10;;
20525;SDS011;10421;49.142;9.232;2023-03-23T10:10:23;4.00;;;2.57;;
20525;SDS011;10421;49.142;9.232;2023-03-23T10:12:59;2.30;;;2.20;;
20525;SDS011;10421;49.142;9.232;2023-03-23T10:15:30;2.87;;;2.67;;
20525;SDS011;10421;49.142;9.232;2023-03-23T10:18:00;3.77;;;3.07;;
20525;SDS011;10421;49.142;9.232;2023-03-23T10:20:35;2.00;;;1.73;;
20525;SDS011;10421;49.142;9.232;2023-03-23T10:26:02;2.77;;;2.57;;
20525;SDS011;10421;49.142;9.232;2023-03-23T10:28:35;3.57;;;2.07;;
20525;SDS011;10421;49.142;9.232;2023-03-23T10:31:03;2.37;;;2.17;;
20525;SDS011;10421;49.142;9.232;2023-03-23T10:33:35;2.57;;;2.37;;
20525;SDS011;10421;49.142;9.232;2023-03-23T10:36:10;3.47;;;2.47;;
20525;SDS011;10421;49.142;9.232;2023-03-23T10:38:41;6.23;;;2.20;;
20525;SDS011;10421;49.142;9.232;2023-03-23T10:41:12;2.77;;;2.57;;
20525;SDS011;10421;49.142;9.232;2023-03-23T10:43:40;4.40;;;1.80;;
20525;SDS011;10421;49.142;9.232;2023-03-23T10:46:11;2.63;;;2.43;;
20525;SDS011;10421;49.142;9.232;2023-03-23T10:48:48;2.57;;;2.30;;
20525;SDS011;10421;49.142;9.232;2023-03-23T10:51:22;3.47;;;2.70;;
20525;SDS011;10421;49.142;9.232;2023-03-23T10:53:56;2.70;;;2.37;;
20525;SDS011;10421;49.142;9.232;2023-03-23T10:56:26;3.10;;;2.10;;
20525;SDS011;10421;49.142;9.232;2023-03-23T10:58:54;3.00;;;2.07;;
20525;SDS011;10421;49.142;9.232;2023-03-23T11:01:28;2.20;;;1.87;;
20525;SDS011;10421;49.142;9.232;2023-03-23T11:03:57;2.57;;;2.37;;
20525;SDS011;10421;49.142;9.232;2023-03-23T11:06:28;4.30;;;2.27;;
20525;SDS011;10421;49.142;9.232;2023-03-23T11:09:01;1.53;;;1.30;;
20525;SDS011;10421;49.142;9.232;2023-03-23T11:11:31;1.67;;;1.47;;
20525;SDS011;10421;49.142;9.232;2023-03-23T11:14:11;2.87;;;2.67;;
20525;SDS011;10421;49.142;9.232;2023-03-23T11:16:44;1.77;;;1.67;;
20525;SDS011;10421;49.142;9.232;2023-03-23T11:19:20;2.23;;;2.03;;
20525;SDS011;10421;49.142;9.232;2023-03-23T11:21:51;2.50;;;1.90;;
20525;SDS011;10421;49.142;9.232;2023-03-23T11:24:21;1.90;;;1.50;;
20525;SDS011;10421;49.142;9.232;2023-03-23T11:26:48;2.60;;;1.83;;
20525;SDS011;10421;49.142;9.232;2023-03-23T11:29:18;2.03;;;1.93;;
20525;SDS011;10421;49.142;9.232;2023-03-23T11:31:48;1.60;;;1.50;;
20525;SDS011;10421;49.142;9.232;2023-03-23T11:34:18;4.00;;;1.80;;
20525;SDS011;10421;49.142;9.232;2023-03-23T11:36:47;1.70;;;1.60;;
20525;SDS011;10421;49.142;9.232;2023-03-23T11:39:20;2.33;;;1.83;;
20525;SDS011;10421;49.142;9.232;2023-03-23T11:41:48;1.90;;;1.70;;
20525;SDS011;10421;49.142;9.232;2023-03-23T11:44:15;2.10;;;1.67;;
20525;SDS011;10421;49.142;9.232;2023-03-23T11:46:48;2.47;;;1.60;;
20525;SDS011;10421;49.142;9.232;2023-03-23T11:49:25;2.03;;;1.80;;
20525;SDS011;10421;49.142;9.232;2023-03-23T11:51:59;1.97;;;1.77;;
20525;SDS011;10421;49.142;9.232;2023-03-23T11:54:40;2.03;;;1.87;;
20525;SDS011;10421;49.142;9.232;2023-03-23T11:57:11;3.20;;;2.03;;
20525;SDS011;10421;49.142;9.232;2023-03-23T11:59:39;2.30;;;2.10;;
20525;SDS011;10421;49.142;9.232;2023-03-23T12:02:14;2.07;;;1.97;;
20525;SDS011;10421;49.142;9.232;2023-03-23T12:05:04;2.00;;;1.80;;
20525;SDS011;10421;49.142;9.232;2023-03-23T12:07:56;2.37;;;2.20;;
20525;SDS011;10421;49.142;9.232;2023-03-23T12:10:35;3.77;;;2.10;;
20525;SDS011;10421;49.142;9.232;2023-03-23T12:13:18;2.20;;;2.00;;
20525;SDS011;10421;49.142;9.232;2023-03-23T12:15:56;2.87;;;2.00;;
20525;SDS011;10421;49.142;9.232;2023-03-23T12:18:31;2.47;;;1.83;;
20525;SDS011;10421;49.142;9.232;2023-03-23T12:21:06;2.43;;;1.87;;
20525;SDS011;10421;49.142;9.232;2023-03-23T12:23:42;2.87;;;1.87;;
20525;SDS011;10421;49.142;9.232;2023-03-23T12:26:18;2.40;;;2.07;;
20525;SDS011;10421;49.142;9.232;2023-03-23T12:32:19;2.43;;;2.20;;
20525;SDS011;10421;49.142;9.232;2023-03-23T12:35:00;2.27;;;2.07;;
20525;SDS011;10421;49.142;9.232;2023-03-23T12:37:40;2.93;;;2.63;;
20525;SDS011;10421;49.142;9.232;2023-03-23T12:40:28;1.80;;;1.70;;
20525;SDS011;10421;49.142;9.232;2023-03-23T12:43:09;2.33;;;2.20;;
20525;SDS011;10421;49.142;9.232;2023-03-23T12:45:45;2.50;;;2.00;;
20525;SDS011;10421;49.142;9.232;2023-03-23T12:48:21;3.10;;;2.60;;
20525;SDS011;10421;49.142;9.232;2023-03-23T12:51:00;2.40;;;2.00;;
20525;SDS011;10421;49.142;9.232;2023-03-23T12:53:36;3.00;;;2.00;;
20525;SDS011;10421;49.142;9.232;2023-03-23T12:56:11;3.00;;;2.00;;
20525;SDS011;10421;49.142;9.232;2023-03-23T12:58:44;2.67;;;2.40;;
20525;SDS011;10421;49.142;9.232;2023-03-23T13:01:14;2.63;;;2.43;;
20525;SDS011;10421;49.142;9.232;2023-03-23T13:03:48;2.60;;;2.13;;
20525;SDS011;10421;49.142;9.232;2023-03-23T13:06:20;2.30;;;2.10;;
20525;SDS011;10421;49.142;9.232;2023-03-23T13:08:53;2.30;;;2.10;;
20525;SDS011;10421;49.142;9.232;2023-03-23T13:11:28;3.67;;;2.13;;
20525;SDS011;10421;49.142;9.232;2023-03-23T13:14:01;2.23;;;2.03;;
20525;SDS011;10421;49.142;9.232;2023-03-23T13:16:47;3.37;;;2.30;;
20525;SDS011;10421;49.142;9.232;2023-03-23T13:19:21;2.50;;;2.30;;
20525;SDS011;10421;49.142;9.232;2023-03-23T13:21:53;2.20;;;2.10;;
20525;SDS011;10421;49.142;9.232;2023-03-23T13:24:27;2.60;;;2.07;;
20525;SDS011;10421;49.142;9.232;2023-03-23T13:26:57;2.23;;;1.80;;
20525;SDS011;10421;49.142;9.232;2023-03-23T13:29:27;2.40;;;2.20;;
20525;SDS011;10421;49.142;9.232;2023-03-23T13:32:03;2.23;;;2.03;;
20525;SDS011;10421;49.142;9.232;2023-03-23T13:34:34;2.63;;;2.30;;
20525;SDS011;10421;49.142;9.232;2023-03-23T13:37:03;2.27;;;2.10;;
20525;SDS011;10421;49.142;9.232;2023-03-23T13:39:32;3.10;;;2.80;;
20525;SDS011;10421;49.142;9.232;2023-03-23T13:42:03;2.80;;;2.40;;
20525;SDS011;10421;49.142;9.232;2023-03-23T13:44:43;2.70;;;2.30;;
20525;SDS011;10421;49.142;9.232;2023-03-23T13:47:24;3.80;;;2.43;;
20525;SDS011;10421;49.142;9.232;2023-03-23T13:49:54;2.53;;;2.33;;
20525;SDS011;10421;49.142;9.232;2023-03-23T13:52:23;3.17;;;2.60;;
20525;SDS011;10421;49.142;9.232;2023-03-23T13:55:12;3.47;;;2.33;;
20525;SDS011;10421;49.142;9.232;2023-03-23T13:57:50;3.20;;;2.90;;
20525;SDS011;10421;49.142;9.232;2023-03-23T14:03:16;4.50;;;2.97;;
20525;SDS011;10421;49.142;9.232;2023-03-23T14:05:50;3.57;;;3.03;;
20525;SDS011;10421;49.142;9.232;2023-03-23T14:08:36;3.87;;;2.53;;
20525;SDS011;10421;49.142;9.232;2023-03-23T14:11:15;4.90;;;3.07;;
20525;SDS011;10421;49.142;9.232;2023-03-23T14:13:49;6.03;;;3.00;;
20525;SDS011;10421;49.142;9.232;2023-03-23T14:16:25;3.37;;;2.77;;
20525;SDS011;10421;49.142;9.232;2023-03-23T14:18:58;2.70;;;2.50;;
20525;SDS011;10421;49.142;9.232;2023-03-23T14:21:31;3.53;;;2.90;;
20525;SDS011;10421;49.142;9.232;2023-03-23T14:24:00;5.20;;;3.27;;
20525;SDS011;10421;49.142;9.232;2023-03-23T14:26:28;2.77;;;2.50;;
20525;SDS011;10421;49.142;9.232;2023-03-23T14:28:55;5.70;;;2.27;;
20525;SDS011;10421;49.142;9.232;2023-03-23T14:31:22;6.43;;;2.73;;
20525;SDS011;10421;49.142;9.232;2023-03-23T14:33:53;3.73;;;3.23;;
20525;SDS011;10421;49.142;9.232;2023-03-23T14:36:21;7.93;;;3.60;;
20525;SDS011;10421;49.142;9.232;2023-03-23T14:38:54;3.60;;;2.60;;
20525;SDS011;10421;49.142;9.232;2023-03-23T14:41:27;8.60;;;3.03;;
20525;SDS011;10421;49.142;9.232;2023-03-23T14:43:55;3.30;;;2.90;;
20525;SDS011;10421;49.142;9.232;2023-03-23T14:46:22;2.83;;;2.63;;
20525;SDS011;10421;49.142;9.232;2023-03-23T14:48:52;3.53;;;3.20;;
20525;SDS011;10421;49.142;9.232;2023-03-23T14:51:20;2.73;;;2.50;;
20525;SDS011;10421;49.142;9.232;2023-03-23T14:53:47;4.00;;;3.10;;
20525;SDS011;10421;49.142;9.232;2023-03-23T14:56:17;2.90;;;2.70;;
20525;SDS011;10421;49.142;9.232;2023-03-23T14:58:47;3.50;;;3.20;;
20525;SDS011;10421;49.142;9.232;2023-03-23T15:01:17;3.03;;;2.77;;
20525;SDS011;10421;49.142;9.232;2023-03-23T15:03:51;4.50;;;3.20;;
20525;SDS011;10421;49.142;9.232;2023-03-23T15:06:25;5.20;;;4.70;;
20525;SDS011;10421;49.142;9.232;2023-03-23T15:08:55;6.50;;;4.50;;
20525;SDS011;10421;49.142;9.232;2023-03-23T15:11:24;7.00;;;4.13;;
20525;SDS011;10421;49.142;9.232;2023-03-23T15:13:55;3.93;;;2.93;;
20525;SDS011;10421;49.142;9.232;2023-03-23T15:16:28;4.07;;;3.60;;
20525;SDS011;10421;49.142;9.232;2023-03-23T15:19:01;5.70;;;3.60;;
20525;SDS011;10421;49.142;9.232;2023-03-23T15:21:30;5.30;;;3.70;;